Startpagina
METAR-TAF:

METAR-TAF

Vliegvelden :

Djedda, Saoedi-Arabië

breedte: 21-42N, lengte: 039-11E, hoogte: 15 m

Actueel weer

Dit bericht is 23 minuten geleden gemaakt, om 15:00 UTC
Wind 12 kt uit het westen
Temperatuur 34°C
Vochtigheid 53%
Druk 1004 hPa
Zicht 10 km of meer
Weinig wolken op 4000 ft

METAR: OEJN 221500Z 27012KT 9999 FEW040 34/23 Q1004 NOSIG

Tijdstip: 18:23 (15:23 UTC)

Verwachting

Dit bericht is 4 uur en het 23 minuten geleden gemaakt, om 11:00 UTC
Verwachting geldig van 22 om 12 UTC tot 23 om 18 UTC
Wind 8 kt uit het noordwesten met uitschieters tot 18 kt
Zicht 10 km of meer
Weinig wolken op 4000 ft
Verspreide wolken op 10000 ft
Tijdelijke
van 22 om 12 UTC tot 22 om 18 UTC
Zicht: 7000 m
Verspreide wolken op 4000 ft
Wijzigt naar
van 22 om 18 UTC tot 22 om 20 UTC
Wind 10 kt uit het noorden

TAF: OEJN 221100Z 2212/2318 31008G18KT 9999 FEW040 SCT100 TEMPO 2212/2218 7000 SCT040 BECMG 2218/2220 36010KT

Waarnemingen en weersverwachtingen van meer dan 4000 vliegvelden (METAR en TAF).

De beschikbare stations zijn de gele en rode punten op de kaart.

Ga met uw muis naar het station om de naam te zien.

Klik dan om waarnemingen en weersverwachtingen te zien.

kaart wijzigen: klik op de groene knoppen met een zwart kruis om in te zoomen, op de groene knop met een streepje om uit te zoomen of op de groene pijlen voor aangrenzende kaarten.


METAR-TAF: